AirNav   Pilot Hours Calculator
 
 1530 users online  

23AL Tabernacle Stagefield Army Heliport
Fort Rucker/Ozark, Alabama, USA

GOING TO FORT RUCKER/OZARK?


FAA INFORMATION EFFECTIVE 05 DECEMBER 2019

Location

FAA Identifier: 23AL
Lat/Long: 31-27-53.8300N 085-50-46.8100W
31-27.897167N 085-50.780167W
31.4649528,-85.8463361
(estimated)
Elevation: 470 ft. / 143 m (estimated)
Variation: 02W (2000)
From city: 2 miles NE of central business district of the associated city
Time zone: UTC -6 (UTC -5 during Daylight Saving Time)
Zip code: 36351

Heliport Operations

Heliport use: Private use. Permission required prior to landing
Activation date: 05/2002
Control tower: no
ARTCC: JACKSONVILLE CENTER
FSS: ANNISTON FLIGHT SERVICE STATION
NOTAMs facility: OZR (NOTAM-D service available)
Attendance: UNATNDD EXCP DURG TRNG
Segmented circle: no

Heliport Communications

OPS: 126.2
WX AWOS-3PT at EDN (10 nm S): 118.9 (334-347-3524)

Nearby radio navigation aids

VOR radial/distance  VOR name  Freq  Var
EDNr019/(10.5)ENTERPRISE VOR116.6003W
HEYr302/(11.3)HANCHEY VOR110.6003W
OZRr335/13.3CAIRNS VOR/DME111.2003W
RRSr295/23.9WIREGRASS VORTAC111.6002E

 
NDB name  Hdg/Dist  Freq  Var  ID
LOWE323/8.126903WLOR .-.. --- .-.
BOLL WEEVIL046/10.235203WBVG -... ...- --.
HANCHEY301/11.222103WHYE .... -.-- .
RUCKR357/14.421203WOZ --- --..
BLOOD153/25.636504WTOI - --- ..
JUDD073/29.526402WJUY .--- ..- -.--

Heliport Services

Runway Information

Helipad H1

Dimensions: 1600 x 75 ft. / 488 x 23 m
Surface: asphalt
Traffic pattern: leftleft

Helipad H2

Dimensions: 1600 x 75 ft. / 488 x 23 m
Surface: asphalt
Traffic pattern: leftleft

Helipad H3

Dimensions: 1600 x 75 ft. / 488 x 23 m
Surface: asphalt
Traffic pattern: leftleft

Helipad H4

Dimensions: 1600 x 75 ft. / 488 x 23 m
Surface: asphalt
Traffic pattern: leftleft

Heliport Ownership and Management from official FAA records

Ownership: U.S. Army
Owner: US ARMY AVIATION CTR & FORT RUCKER
NOVOSEL ST
FORT RUCKER, AL 36362
Phone 334-255-9764
Manager: JACK A HOLMES
USAACE G3 AIR,
FORT RUCKER, AL 36362
Phone 334-255-9764

Additional Remarks

FOR CD CTC CAIRNS APCH AT 334-255-8402 OR 334-255-8460, WHEN APCH CLSD CTC JACKSONVILLE ARTCC AT 904-845-1592.

Instrument Procedures

There are no published instrument procedures at 23AL.

Some nearby airports with instrument procedures:

KLOR - Lowe Army Heliport (Fort Rucker) (8 nm SE)
KEDN - Enterprise Municipal Airport (10 nm S)
71J - Ozark-Blackwell Field Airport (12 nm E)
KHEY - Hanchey Army Heliport (Fort Rucker) (12 nm SE)
KOZR - Cairns Army Airfield (Fort Rucker) (13 nm SE)
 
Loc | Ops | Rwys | IFR | FBO | Links
Com | Nav | Svcs | Stats | Notes
Area around 23AL (Tabernacle Stagefield Army Heliport)
 
Road maps at: MapQuest Bing Google
 
Aerial photo
No photo
 
Sectional chart

 
Airport distance calculator
Flying to Tabernacle Stagefield Army Heliport? Find the distance to fly.

From to 23AL

Sunrise and sunset
Times for 05-Dec-2019
 Local
(UTC-6)
 Zulu
(UTC)
Morning civil twilight06:0212:02
Sunrise06:2912:29
Sunset16:3922:39
Evening civil twilight17:0623:06

Current date and time
Zulu (UTC)  05-Dec-2019 21:09:58
Local (UTC-6)  05-Dec-2019 15:09:58
 
METAR
KSXS 
6nm S 
052058Z AUTO 19004KT 10SM CLR 19/00 A3010 RMK AO2 SLP194 T01901001 55013
KLOR 
8nm SE 
052058Z AUTO 21003KT 10SM CLR 20/00 A3011 RMK AO2 SLP180 T02011001 55012
KEDN 
10nm S 
052055Z AUTO 12003KT 10SM CLR 19/01 A3012 RMK AO2 T01850005
KHEY 
12nm SE 
052058Z AUTO 21004KT 10SM CLR 19/M01 A3010 RMK AO2 SLP195 T01921015 55012
KOZR 
13nm SE 
052056Z AUTO 19004KT 10SM CLR 20/M01 A3011 RMK AO2 SLP199 T02001006 55012
TAF
KOZR 
13nm SE 
051600Z 0516/0622 VRB06KT 9999 FEW110 QNH3006INS TX18/0520Z TN01/0611Z
NOTAMs
Click for the latest NOTAMs
NOTAMs are issued by the DoD/FAA and will open in a separate window not controlled by AirNav.

 

 
 

Would you like to see your business listed on this page?

 If your business provides an interesting product or service to pilots, flight crews, aircraft, or users of the Tabernacle Stagefield Army Heliport, you should consider listing it here.  To start the listing process, click on the button below
 
Add a business
 

Other Pages about Tabernacle Stagefield Army Heliport

Update a link
 
Copyright © AirNav, LLC. All rights reserved. Privacy Policy  Contact